Time;durP1;ratioP1;P1;durP2;ratioP2;P2;SDS_P1;SDS_P2;PMS_P1;PMS_P2;Temp;Humidity;BMP_temperature;BMP_pressure;BME280_temperature;BME280_humidity;BME280_pressure;Samples;Min_cycle;Max_cycle;Signal;HPM_P1;HPM_P2
2022/08/07 00:00:32;;;;;;;;;;;26.40;40.90;;;;;;5050072;28;19916;-62
2022/08/07 00:02:58;;;;;;;;;;;26.40;40.90;;;;;;5052744;28;20284;-62
2022/08/07 00:05:24;;;;;;;;;;;26.40;41.00;;;;;;5051656;28;19913;-62
2022/08/07 00:07:50;;;;;;;;;;;26.40;41.00;;;;;;5052288;28;20062;-62
2022/08/07 00:10:15;;;;;;;;;;;26.30;41.00;;;;;;5049548;28;19913;-62
2022/08/07 00:12:42;;;;;;;;;;;26.40;41.20;;;;;;5052472;28;20007;-62
2022/08/07 00:15:08;;;;;;;;;;;26.30;41.10;;;;;;5058333;28;19936;-62
2022/08/07 00:17:34;;;;;;;;;;;26.30;41.20;;;;;;5052329;28;19913;-62
2022/08/07 00:19:59;;;;;;;;;;;26.30;41.20;;;;;;5044270;28;19913;-62
2022/08/07 00:22:24;;;;;;;;;;;26.30;41.30;;;;;;5049422;28;19999;-62
2022/08/07 00:24:50;;;;;;;;;;;26.30;41.30;;;;;;5052137;28;19913;-62
2022/08/07 00:27:16;;;;;;;;;;;26.30;41.40;;;;;;5051656;28;20394;-62
2022/08/07 00:29:42;;;;;;;;;;;26.30;41.30;;;;;;5052361;28;19915;-62
2022/08/07 00:32:07;;;;;;;;;;;26.30;41.40;;;;;;5050293;28;20015;-62
2022/08/07 00:34:33;;;;;;;;;;;26.30;41.30;;;;;;5050885;28;20008;-62
2022/08/07 00:36:58;;;;;;;;;;;26.30;41.40;;;;;;5050976;28;20039;-62
2022/08/07 00:39:23;;;;;;;;;;;26.30;41.50;;;;;;5050072;28;20293;-63
2022/08/07 00:41:50;;;;;;;;;;;26.30;41.50;;;;;;5050382;28;19940;-63
2022/08/07 00:44:15;;;;;;;;;;;26.30;41.50;;;;;;5052301;28;19962;-62
2022/08/07 00:46:41;;;;;;;;;;;26.30;41.50;;;;;;5051295;28;20393;-61
2022/08/07 00:49:08;;;;;;;;;;;26.30;41.60;;;;;;5052088;28;19909;-61
2022/08/07 00:51:33;;;;;;;;;;;26.30;41.70;;;;;;5050209;28;19920;-62
2022/08/07 00:53:59;;;;;;;;;;;26.20;41.60;;;;;;5064539;28;19913;-62
2022/08/07 00:56:24;;;;;;;;;;;26.30;41.60;;;;;;5041801;28;20401;-62
2022/08/07 00:58:50;;;;;;;;;;;26.20;41.70;;;;;;5049247;28;20258;-63
2022/08/07 01:01:15;;;;;;;;;;;26.20;41.70;;;;;;5051132;28;19913;-62
2022/08/07 01:03:41;;;;;;;;;;;26.20;41.70;;;;;;5047169;28;19912;-62
2022/08/07 01:06:07;;;;;;;;;;;26.30;41.70;;;;;;5050673;28;19915;-62
2022/08/07 01:08:33;;;;;;;;;;;26.30;41.80;;;;;;5049904;28;20400;-62
2022/08/07 01:10:58;;;;;;;;;;;26.20;41.80;;;;;;5050973;28;19939;-62
2022/08/07 01:13:23;;;;;;;;;;;26.20;41.80;;;;;;5050614;28;20320;-62
2022/08/07 01:15:49;;;;;;;;;;;26.20;42.50;;;;;;5051947;28;19913;-62
2022/08/07 01:18:14;;;;;;;;;;;26.20;41.90;;;;;;5041813;28;19921;-62
2022/08/07 01:20:52;;;;;;;;;;;26.20;41.90;;;;;;5053055;28;20296;-62
2022/08/07 01:23:17;;;;;;;;;;;26.20;41.90;;;;;;5053917;28;19913;-62
2022/08/07 01:25:42;;;;;;;;;;;26.20;42.00;;;;;;5055010;28;19967;-62
2022/08/07 01:28:08;;;;;;;;;;;26.20;42.00;;;;;;5053365;28;19927;-62
2022/08/07 01:30:33;;;;;;;;;;;26.20;42.10;;;;;;5042305;28;19916;-62
2022/08/07 01:32:59;;;;;;;;;;;26.20;42.10;;;;;;5053800;28;19924;-62
2022/08/07 01:35:24;;;;;;;;;;;26.20;42.10;;;;;;5055915;28;19913;-62
2022/08/07 01:37:50;;;;;;;;;;;26.20;42.10;;;;;;5052983;28;20059;-62
2022/08/07 01:40:17;;;;;;;;;;;26.20;42.10;;;;;;5052440;28;19912;-62
2022/08/07 01:42:42;;;;;;;;;;;26.20;42.10;;;;;;5052554;28;19913;-62
2022/08/07 01:45:08;;;;;;;;;;;26.20;42.10;;;;;;5054061;28;19913;-62
2022/08/07 01:47:34;;;;;;;;;;;26.20;42.10;;;;;;5053188;28;19921;-62
2022/08/07 01:49:59;;;;;;;;;;;26.20;42.10;;;;;;5055654;28;19935;-62
2022/08/07 01:52:24;;;;;;;;;;;26.20;42.20;;;;;;5050738;28;19913;-62
2022/08/07 01:54:50;;;;;;;;;;;26.20;42.20;;;;;;5048471;28;19928;-62
2022/08/07 01:57:16;;;;;;;;;;;26.20;42.90;;;;;;5035574;28;19914;-62
2022/08/07 01:59:45;;;;;;;;;;;26.10;42.20;;;;;;5070191;28;19935;-62
2022/08/07 02:02:26;;;;;;;;;;;26.10;43.00;;;;;;5052227;28;20375;-62
2022/08/07 02:04:52;;;;;;;;;;;26.10;42.30;;;;;;5066467;28;19913;-62
2022/08/07 02:07:18;;;;;;;;;;;26.10;42.30;;;;;;5052727;28;19916;-62
2022/08/07 02:09:44;;;;;;;;;;;26.00;42.40;;;;;;5052117;28;19909;-62
2022/08/07 02:12:16;;;;;;;;;;;26.10;42.50;;;;;;5054169;28;20292;-62
2022/08/07 02:14:43;;;;;;;;;;;26.10;42.50;;;;;;5054438;28;19974;-62
2022/08/07 02:17:09;;;;;;;;;;;26.10;42.50;;;;;;5054677;28;19975;-61
2022/08/07 02:19:34;;;;;;;;;;;26.00;42.50;;;;;;5043149;28;20009;-62
2022/08/07 02:22:00;;;;;;;;;;;26.00;42.50;;;;;;5046913;28;19986;-62
2022/08/07 02:24:26;;;;;;;;;;;26.10;42.60;;;;;;5048333;28;19916;-62
2022/08/07 02:26:52;;;;;;;;;;;26.10;42.50;;;;;;5033682;28;19920;-62
2022/08/07 02:29:17;;;;;;;;;;;26.10;42.50;;;;;;5046090;28;20003;-62
2022/08/07 02:31:43;;;;;;;;;;;26.10;42.40;;;;;;5049425;28;19914;-62
2022/08/07 02:34:08;;;;;;;;;;;26.10;42.50;;;;;;5047381;28;19909;-62
2022/08/07 02:36:34;;;;;;;;;;;26.10;42.50;;;;;;5054453;28;19975;-62
2022/08/07 02:39:00;;;;;;;;;;;26.00;42.50;;;;;;5051017;28;19912;-62
2022/08/07 02:41:25;;;;;;;;;;;26.00;42.50;;;;;;5052450;28;19961;-62
2022/08/07 02:43:51;;;;;;;;;;;26.00;42.70;;;;;;5053103;28;20376;-62
2022/08/07 02:46:17;;;;;;;;;;;26.00;42.60;;;;;;5053222;28;20316;-62
2022/08/07 02:48:42;;;;;;;;;;;26.00;42.70;;;;;;5051949;28;19958;-62
2022/08/07 02:51:09;;;;;;;;;;;26.00;42.70;;;;;;5048607;28;20300;-62
2022/08/07 02:53:34;;;;;;;;;;;26.00;42.70;;;;;;5042363;28;19978;-62
2022/08/07 02:56:00;;;;;;;;;;;26.00;42.80;;;;;;5046340;28;19913;-62
2022/08/07 02:58:26;;;;;;;;;;;26.00;42.70;;;;;;5059211;28;19913;-62
2022/08/07 03:00:51;;;;;;;;;;;26.00;42.80;;;;;;5052895;28;19912;-62
2022/08/07 03:03:18;;;;;;;;;;;26.00;42.80;;;;;;5051086;28;20388;-62
2022/08/07 03:05:43;;;;;;;;;;;25.90;42.90;;;;;;5052804;28;19908;-62
2022/08/07 03:08:09;;;;;;;;;;;25.90;42.90;;;;;;5052048;28;20003;-62
2022/08/07 03:10:34;;;;;;;;;;;25.80;43.30;;;;;;5053930;28;19951;-62
2022/08/07 03:13:00;;;;;;;;;;;25.90;43.30;;;;;;5049641;28;19921;-62
2022/08/07 03:15:26;;;;;;;;;;;25.90;43.40;;;;;;5034727;28;20408;-62
2022/08/07 03:17:51;;;;;;;;;;;25.80;43.30;;;;;;5052425;28;19913;-63
2022/08/07 03:20:16;;;;;;;;;;;25.90;43.40;;;;;;5052576;28;19912;-62
2022/08/07 03:22:42;;;;;;;;;;;25.80;43.30;;;;;;5051016;28;19917;-62
2022/08/07 03:25:07;;;;;;;;;;;25.80;43.40;;;;;;5047695;28;19991;-62
2022/08/07 03:27:33;;;;;;;;;;;25.90;43.40;;;;;;5037458;28;19913;-62
2022/08/07 03:29:58;;;;;;;;;;;25.90;43.40;;;;;;5036718;28;19917;-62
2022/08/07 03:32:25;;;;;;;;;;;25.90;43.30;;;;;;5047885;28;19917;-62
2022/08/07 03:34:50;;;;;;;;;;;25.90;43.30;;;;;;5033989;28;19935;-62
2022/08/07 03:37:17;;;;;;;;;;;25.90;43.30;;;;;;5048791;28;19913;-62
2022/08/07 03:39:42;;;;;;;;;;;25.90;43.40;;;;;;5047438;28;19956;-62
2022/08/07 03:42:08;;;;;;;;;;;25.90;43.40;;;;;;5067652;28;20014;-62
2022/08/07 03:44:33;;;;;;;;;;;25.90;43.40;;;;;;5051016;28;19909;-62
2022/08/07 03:46:59;;;;;;;;;;;25.90;43.40;;;;;;5068201;28;19919;-62
2022/08/07 03:49:24;;;;;;;;;;;25.90;43.30;;;;;;5051854;28;20011;-62
2022/08/07 03:51:50;;;;;;;;;;;25.90;43.40;;;;;;5045983;28;19948;-62
2022/08/07 03:54:16;;;;;;;;;;;25.80;43.40;;;;;;5032431;28;20392;-62
2022/08/07 03:56:41;;;;;;;;;;;25.90;43.40;;;;;;5048097;28;20016;-62
2022/08/07 03:59:07;;;;;;;;;;;25.80;43.50;;;;;;5052503;28;19908;-62
2022/08/07 04:01:32;;;;;;;;;;;25.80;43.50;;;;;;5049058;28;19952;-62
2022/08/07 04:03:58;;;;;;;;;;;25.80;43.50;;;;;;5052651;28;19999;-62
2022/08/07 04:06:23;;;;;;;;;;;25.80;43.60;;;;;;5051605;28;20030;-62
2022/08/07 04:08:50;;;;;;;;;;;25.80;43.60;;;;;;5051905;28;19968;-62
2022/08/07 04:11:15;;;;;;;;;;;25.70;43.60;;;;;;5049676;28;19924;-62
2022/08/07 04:13:41;;;;;;;;;;;25.80;43.60;;;;;;5051227;28;19921;-62
2022/08/07 04:16:06;;;;;;;;;;;25.80;43.60;;;;;;5051482;28;19909;-62
2022/08/07 04:18:32;;;;;;;;;;;25.80;43.60;;;;;;5049509;28;19920;-62
2022/08/07 04:20:57;;;;;;;;;;;25.70;43.60;;;;;;5047992;28;20544;-62
2022/08/07 04:23:23;;;;;;;;;;;25.70;43.70;;;;;;5050472;28;20270;-62
2022/08/07 04:25:48;;;;;;;;;;;25.70;43.60;;;;;;5051740;28;19948;-62
2022/08/07 04:28:14;;;;;;;;;;;25.80;43.70;;;;;;5051004;28;19913;-62
2022/08/07 04:30:39;;;;;;;;;;;25.80;43.60;;;;;;5051514;28;19920;-62
2022/08/07 04:33:08;;;;;;;;;;;25.80;43.70;;;;;;5046611;28;19913;-62
2022/08/07 04:35:35;;;;;;;;;;;25.70;43.80;;;;;;5037906;28;20357;-62
2022/08/07 04:38:03;;;;;;;;;;;25.80;43.80;;;;;;5035133;28;19917;-62
2022/08/07 04:40:28;;;;;;;;;;;25.70;43.80;;;;;;5050415;28;19943;-62
2022/08/07 04:42:54;;;;;;;;;;;25.70;43.90;;;;;;5051372;28;19916;-62
2022/08/07 04:45:19;;;;;;;;;;;25.70;44.00;;;;;;5051303;28;19921;-63
2022/08/07 04:47:55;;;;;;;;;;;25.60;44.00;;;;;;5050794;28;20003;-63
2022/08/07 04:50:27;;;;;;;;;;;25.60;44.20;;;;;;5051331;28;19913;-62
2022/08/07 04:52:55;;;;;;;;;;;25.60;44.20;;;;;;5050888;28;20380;-62
2022/08/07 04:55:23;;;;;;;;;;;25.60;44.10;;;;;;5047266;28;19960;-62
2022/08/07 04:58:08;;;;;;;;;;;25.60;44.10;;;;;;5051867;28;19955;-62
2022/08/07 05:00:50;;;;;;;;;;;25.60;44.20;;;;;;5050069;28;19920;-62
2022/08/07 05:03:35;;;;;;;;;;;25.60;44.30;;;;;;5049778;28;19923;-62
2022/08/07 05:06:10;;;;;;;;;;;25.60;44.20;;;;;;5049653;28;19932;-62
2022/08/07 05:08:59;;;;;;;;;;;25.50;44.20;;;;;;5042941;28;19909;-62
2022/08/07 05:11:26;;;;;;;;;;;25.50;45.10;;;;;;5042146;28;19916;-62
2022/08/07 05:13:59;;;;;;;;;;;25.50;44.40;;;;;;5050298;28;19925;-62
2022/08/07 05:16:25;;;;;;;;;;;25.50;44.40;;;;;;5049610;28;19916;-62
2022/08/07 05:18:52;;;;;;;;;;;25.50;44.50;;;;;;5051534;28;19924;-62
2022/08/07 05:21:18;;;;;;;;;;;25.60;44.50;;;;;;5048754;28;19913;-62
2022/08/07 05:23:47;;;;;;;;;;;25.60;44.30;;;;;;5046383;28;19963;-62
2022/08/07 05:26:15;;;;;;;;;;;25.60;44.30;;;;;;5041844;28;20361;-62
2022/08/07 05:28:40;;;;;;;;;;;25.50;44.30;;;;;;5050387;28;19999;-62
2022/08/07 05:31:06;;;;;;;;;;;25.60;44.50;;;;;;5050911;28;20332;-62
2022/08/07 05:33:32;;;;;;;;;;;25.60;44.50;;;;;;5047298;28;19916;-62
2022/08/07 05:35:58;;;;;;;;;;;25.50;44.60;;;;;;5049416;28;20269;-62
2022/08/07 05:38:23;;;;;;;;;;;25.50;44.80;;;;;;5049568;28;19913;-61
2022/08/07 05:40:49;;;;;;;;;;;25.50;44.60;;;;;;5049386;28;20313;-62
2022/08/07 05:43:14;;;;;;;;;;;25.40;44.70;;;;;;5046216;28;20372;-62
2022/08/07 05:45:40;;;;;;;;;;;25.40;44.90;;;;;;5040515;28;19913;-62
2022/08/07 05:48:05;;;;;;;;;;;25.40;44.80;;;;;;5051292;28;19909;-62
2022/08/07 05:50:32;;;;;;;;;;;25.50;45.00;;;;;;5048653;28;19917;-62
2022/08/07 05:52:58;;;;;;;;;;;25.50;44.80;;;;;;5051126;28;20351;-62
2022/08/07 05:55:23;;;;;;;;;;;25.50;45.00;;;;;;5049907;28;19948;-62
2022/08/07 05:57:48;;;;;;;;;;;25.50;45.00;;;;;;5051222;28;19913;-62
2022/08/07 06:00:14;;;;;;;;;;;25.50;45.00;;;;;;5049243;28;19917;-62
2022/08/07 06:02:39;;;;;;;;;;;25.50;45.00;;;;;;5046579;28;20422;-62
2022/08/07 06:05:06;;;;;;;;;;;25.40;45.10;;;;;;5053366;28;20372;-62
2022/08/07 06:07:32;;;;;;;;;;;25.40;45.20;;;;;;5052792;28;19948;-62
2022/08/07 06:09:58;;;;;;;;;;;25.40;45.10;;;;;;5052887;28;19948;-62
2022/08/07 06:12:23;;;;;;;;;;;25.40;45.20;;;;;;5052791;28;19928;-62
2022/08/07 06:14:49;;;;;;;;;;;25.40;45.20;;;;;;5052491;28;19956;-62
2022/08/07 06:17:14;;;;;;;;;;;25.30;45.10;;;;;;5048629;28;20100;-62
2022/08/07 06:19:40;;;;;;;;;;;25.30;45.50;;;;;;5037262;28;19943;-63
2022/08/07 06:22:06;;;;;;;;;;;25.40;45.40;;;;;;5053795;28;19917;-62
2022/08/07 06:24:31;;;;;;;;;;;25.30;45.40;;;;;;5052778;28;19909;-62
2022/08/07 06:26:56;;;;;;;;;;;25.30;45.60;;;;;;5053340;28;19913;-62
2022/08/07 06:29:25;;;;;;;;;;;25.30;45.70;;;;;;5052626;28;20385;-62
2022/08/07 06:31:51;;;;;;;;;;;25.30;45.60;;;;;;5054517;28;20008;-62
2022/08/07 06:34:16;;;;;;;;;;;25.30;45.50;;;;;;5052597;28;20003;-62
2022/08/07 06:36:42;;;;;;;;;;;25.30;45.50;;;;;;5052786;28;19964;-62
2022/08/07 06:39:07;;;;;;;;;;;25.30;45.50;;;;;;5053633;28;20353;-62
2022/08/07 06:41:40;;;;;;;;;;;25.30;45.60;;;;;;5053204;28;19936;-61
2022/08/07 06:44:06;;;;;;;;;;;25.30;45.60;;;;;;5053081;28;19909;-62
2022/08/07 06:46:31;;;;;;;;;;;25.30;45.60;;;;;;5052731;28;19958;-62
2022/08/07 06:48:57;;;;;;;;;;;25.30;45.60;;;;;;5053941;28;19909;-62
2022/08/07 06:51:23;;;;;;;;;;;25.30;45.70;;;;;;5053205;28;20369;-62
2022/08/07 06:53:49;;;;;;;;;;;25.30;45.60;;;;;;5052051;28;20373;-61
2022/08/07 06:56:14;;;;;;;;;;;25.30;45.60;;;;;;5051312;28;20086;-62
2022/08/07 06:58:40;;;;;;;;;;;25.30;45.60;;;;;;5052666;28;20487;-62
2022/08/07 07:01:05;;;;;;;;;;;25.30;45.50;;;;;;5048622;28;20293;-62
2022/08/07 07:03:31;;;;;;;;;;;25.30;45.60;;;;;;5046254;28;19917;-62
2022/08/07 07:05:57;;;;;;;;;;;25.20;45.70;;;;;;5050547;28;19913;-62
2022/08/07 07:08:26;;;;;;;;;;;25.20;45.70;;;;;;5054201;28;20258;-62
2022/08/07 07:10:52;;;;;;;;;;;25.20;45.60;;;;;;5053972;28;20274;-62
2022/08/07 07:13:18;;;;;;;;;;;25.20;45.50;;;;;;5050480;28;19935;-62
2022/08/07 07:15:47;;;;;;;;;;;25.20;45.50;;;;;;5049938;28;19913;-62
2022/08/07 07:18:22;;;;;;;;;;;25.20;45.40;;;;;;5020959;28;19996;-62
2022/08/07 07:20:53;;;;;;;;;;;25.20;45.40;;;;;;5034682;28;20391;-62
2022/08/07 07:23:19;;;;;;;;;;;25.20;45.40;;;;;;5048369;28;20688;-62
2022/08/07 07:25:44;;;;;;;;;;;25.20;45.30;;;;;;5052266;28;19921;-62
2022/08/07 07:28:16;;;;;;;;;;;25.20;45.30;;;;;;5050377;28;20388;-62
2022/08/07 07:30:41;;;;;;;;;;;25.10;45.80;;;;;;5052626;28;19913;-62
2022/08/07 07:33:08;;;;;;;;;;;25.10;45.20;;;;;;5052182;28;19909;-62
2022/08/07 07:35:34;;;;;;;;;;;25.10;45.20;;;;;;5051507;28;19962;-62
2022/08/07 07:37:59;;;;;;;;;;;25.10;45.30;;;;;;5049387;28;20368;-62
2022/08/07 07:40:25;;;;;;;;;;;25.10;45.20;;;;;;5049697;28;19916;-62
2022/08/07 07:42:51;;;;;;;;;;;25.10;45.20;;;;;;5052117;28;20003;-62
2022/08/07 07:45:20;;;;;;;;;;;25.20;45.20;;;;;;5045866;28;20349;-62
2022/08/07 07:47:46;;;;;;;;;;;25.20;45.20;;;;;;5042660;28;19942;-62
2022/08/07 07:50:11;;;;;;;;;;;25.20;45.10;;;;;;5050938;28;19999;-62
2022/08/07 07:52:37;;;;;;;;;;;25.20;45.10;;;;;;5048163;28;19959;-62
2022/08/07 07:55:03;;;;;;;;;;;25.20;44.90;;;;;;5050675;28;20419;-62
2022/08/07 07:57:28;;;;;;;;;;;25.20;44.90;;;;;;5049108;28;19924;-62
2022/08/07 07:59:54;;;;;;;;;;;25.20;44.90;;;;;;5046956;28;19914;-62
2022/08/07 08:02:19;;;;;;;;;;;25.20;44.80;;;;;;5050336;28;19916;-62
2022/08/07 08:04:45;;;;;;;;;;;25.20;44.70;;;;;;5052755;28;19908;-62
2022/08/07 08:07:10;;;;;;;;;;;25.30;44.60;;;;;;5050764;28;19913;-62
2022/08/07 08:09:36;;;;;;;;;;;25.20;44.70;;;;;;5047962;28;20429;-62
2022/08/07 08:12:02;;;;;;;;;;;25.20;44.70;;;;;;5051177;28;20392;-62
2022/08/07 08:14:28;;;;;;;;;;;25.20;44.60;;;;;;5050021;28;20019;-62
2022/08/07 08:16:54;;;;;;;;;;;25.20;44.70;;;;;;5050920;28;19995;-62
2022/08/07 08:19:22;;;;;;;;;;;25.30;44.60;;;;;;5049852;28;19947;-62
2022/08/07 08:27:20;;;;;;;;;;;25.30;44.40;;;;;;5058141;28;19969;-62
2022/08/07 08:29:49;;;;;;;;;;;25.30;44.30;;;;;;5051167;28;19916;-62
2022/08/07 08:32:16;;;;;;;;;;;25.30;44.10;;;;;;5050439;28;19916;-62
2022/08/07 08:34:43;;;;;;;;;;;25.30;44.00;;;;;;5047126;28;19913;-62
2022/08/07 08:37:09;;;;;;;;;;;25.30;43.90;;;;;;5051033;28;19987;-62
2022/08/07 08:39:34;;;;;;;;;;;25.40;44.40;;;;;;5048463;28;19924;-62
2022/08/07 08:42:03;;;;;;;;;;;25.40;44.30;;;;;;5047060;28;19924;-62
2022/08/07 08:44:36;;;;;;;;;;;25.40;43.60;;;;;;5052207;28;19940;-62
2022/08/07 08:47:21;;;;;;;;;;;25.40;43.70;;;;;;5049968;28;19917;-62
2022/08/07 08:49:57;;;;;;;;;;;25.40;43.60;;;;;;5049531;28;19958;-62
2022/08/07 08:52:24;;;;;;;;;;;25.40;43.40;;;;;;5051944;28;19916;-62
2022/08/07 08:54:53;;;;;;;;;;;25.40;43.60;;;;;;5049765;28;19916;-62
2022/08/07 08:57:25;;;;;;;;;;;25.30;43.50;;;;;;5050897;28;19951;-62
2022/08/07 09:00:09;;;;;;;;;;;25.30;43.90;;;;;;5045577;28;19935;-62
2022/08/07 09:02:37;;;;;;;;;;;25.30;44.00;;;;;;5042683;28;19963;-62
2022/08/07 09:05:27;;;;;;;;;;;25.20;43.20;;;;;;5051126;28;20266;-62
2022/08/07 09:07:53;;;;;;;;;;;25.30;43.70;;;;;;5049746;28;19912;-62
2022/08/07 09:10:18;;;;;;;;;;;25.30;43.40;;;;;;5049715;28;19923;-62
2022/08/07 09:12:59;;;;;;;;;;;25.40;43.20;;;;;;5050576;28;19920;-62
2022/08/07 09:15:27;;;;;;;;;;;25.30;42.80;;;;;;5047152;28;19989;-62
2022/08/07 09:18:10;;;;;;;;;;;25.30;42.80;;;;;;5050096;28;20270;-62
2022/08/07 09:20:44;;;;;;;;;;;25.40;42.80;;;;;;5043840;28;19915;-62
2022/08/07 09:23:10;;;;;;;;;;;25.40;42.70;;;;;;5049788;28;20008;-62
2022/08/07 09:25:57;;;;;;;;;;;25.40;42.40;;;;;;5051821;28;19999;-62
2022/08/07 09:28:52;;;;;;;;;;;25.40;42.50;;;;;;5050483;28;19916;-62
2022/08/07 09:31:40;;;;;;;;;;;25.40;42.50;;;;;;5045811;28;19952;-62
2022/08/07 09:34:21;;;;;;;;;;;25.40;42.30;;;;;;5046679;28;19913;-62
2022/08/07 09:37:01;;;;;;;;;;;25.40;42.40;;;;;;5039398;28;19921;-62
2022/08/07 09:39:34;;;;;;;;;;;25.40;42.40;;;;;;5052371;28;19935;-62
2022/08/07 09:42:01;;;;;;;;;;;25.40;42.40;;;;;;5035697;28;19917;-62
2022/08/07 09:44:38;;;;;;;;;;;25.40;42.20;;;;;;5052569;28;19909;-62
2022/08/07 09:47:13;;;;;;;;;;;25.40;42.40;;;;;;5032998;28;19961;-62
2022/08/07 09:49:38;;;;;;;;;;;25.40;42.30;;;;;;5034824;28;20507;-62
2022/08/07 09:52:07;;;;;;;;;;;25.50;42.30;;;;;;5051243;28;20023;-62
2022/08/07 09:54:34;;;;;;;;;;;25.60;42.20;;;;;;5054653;28;20062;-62
2022/08/07 09:57:18;;;;;;;;;;;25.50;42.20;;;;;;5054369;28;19917;-62
2022/08/07 10:00:10;;;;;;;;;;;25.60;42.30;;;;;;5054907;28;20003;-62
2022/08/07 10:02:48;;;;;;;;;;;25.60;42.10;;;;;;5050968;28;19944;-62
2022/08/07 10:05:24;;;;;;;;;;;25.60;42.10;;;;;;5053895;28;19912;-62
2022/08/07 10:08:13;;;;;;;;;;;25.60;42.00;;;;;;5050916;28;20360;-62
2022/08/07 10:10:43;;;;;;;;;;;25.60;42.00;;;;;;5049729;28;20439;-62
2022/08/07 10:13:15;;;;;;;;;;;25.60;42.00;;;;;;5040898;28;19917;-62
2022/08/07 10:15:59;;;;;;;;;;;25.60;41.90;;;;;;5052658;28;19999;-62
2022/08/07 10:18:30;;;;;;;;;;;25.60;42.00;;;;;;5048178;28;19921;-62
2022/08/07 10:21:02;;;;;;;;;;;25.50;41.60;;;;;;5054854;28;20369;-61
2022/08/07 10:23:39;;;;;;;;;;;25.50;42.00;;;;;;5054164;28;19909;-62
2022/08/07 10:26:12;;;;;;;;;;;25.50;41.70;;;;;;5051518;28;20372;-62
2022/08/07 10:28:56;;;;;;;;;;;25.50;41.90;;;;;;5043156;28;19917;-62
2022/08/07 10:31:24;;;;;;;;;;;25.50;41.60;;;;;;5053598;28;20051;-62
2022/08/07 10:34:02;;;;;;;;;;;25.50;41.40;;;;;;5051725;28;19924;-62
2022/08/07 10:36:39;;;;;;;;;;;25.50;41.30;;;;;;5033456;28;19921;-62
2022/08/07 10:39:23;;;;;;;;;;;25.50;41.10;;;;;;5045120;28;19965;-62
2022/08/07 10:42:06;;;;;;;;;;;25.60;41.20;;;;;;5053689;28;19921;-62
2022/08/07 10:44:34;;;;;;;;;;;25.50;41.10;;;;;;5047366;28;20369;-63
2022/08/07 10:47:05;;;;;;;;;;;25.50;41.30;;;;;;5045481;28;19913;-61
2022/08/07 10:49:33;;;;;;;;;;;25.50;41.20;;;;;;5053970;28;20321;-62
2022/08/07 10:52:08;;;;;;;;;;;25.50;41.10;;;;;;5054446;28;20287;-62
2022/08/07 10:54:43;;;;;;;;;;;25.50;41.20;;;;;;5050488;28;20004;-62
2022/08/07 10:57:27;;;;;;;;;;;25.50;41.20;;;;;;5054167;28;19916;-62
2022/08/07 11:00:02;;;;;;;;;;;25.50;41.10;;;;;;5055200;28;20312;-62
2022/08/07 11:02:30;;;;;;;;;;;25.50;40.90;;;;;;5053232;28;19952;-62
2022/08/07 11:05:14;;;;;;;;;;;25.50;41.10;;;;;;5052502;28;19919;-62
2022/08/07 11:07:44;;;;;;;;;;;25.40;40.70;;;;;;5052413;28;19956;-62
2022/08/07 11:10:16;;;;;;;;;;;25.30;40.90;;;;;;5048087;28;19931;-62
2022/08/07 11:12:44;;;;;;;;;;;25.30;41.10;;;;;;5047035;28;19913;-62
2022/08/07 11:15:13;;;;;;;;;;;25.30;40.90;;;;;;5038792;28;20064;-62
2022/08/07 11:17:42;;;;;;;;;;;25.40;41.20;;;;;;5047114;28;19956;-62
2022/08/07 11:20:09;;;;;;;;;;;25.40;40.90;;;;;;5051581;28;19919;-63
2022/08/07 11:22:48;;;;;;;;;;;25.50;41.00;;;;;;5053329;28;19913;-61
2022/08/07 11:25:18;;;;;;;;;;;25.50;40.90;;;;;;5051446;28;19913;-62
2022/08/07 11:27:44;;;;;;;;;;;25.60;40.80;;;;;;5050586;28;19935;-62
2022/08/07 11:30:13;;;;;;;;;;;25.50;41.30;;;;;;5049161;28;20372;-62
2022/08/07 11:32:41;;;;;;;;;;;25.50;40.60;;;;;;5033690;28;19914;-61
2022/08/07 11:35:10;;;;;;;;;;;25.50;40.30;;;;;;5048447;28;19916;-62
2022/08/07 11:37:54;;;;;;;;;;;25.50;40.50;;;;;;5053241;28;19913;-62
2022/08/07 11:40:38;;;;;;;;;;;25.60;40.10;;;;;;5050325;28;19917;-62
2022/08/07 11:43:18;;;;;;;;;;;25.50;39.90;;;;;;5051301;28;20361;-62
2022/08/07 11:45:46;;;;;;;;;;;25.50;39.70;;;;;;5041829;28;20364;-62
2022/08/07 11:48:30;;;;;;;;;;;25.40;39.80;;;;;;5052036;28;19928;-62
2022/08/07 11:51:15;;;;;;;;;;;25.50;40.00;;;;;;5049226;28;19960;-62
2022/08/07 11:54:03;;;;;;;;;;;25.40;39.80;;;;;;5052006;28;20292;-62
2022/08/07 11:56:34;;;;;;;;;;;25.50;39.70;;;;;;5052933;28;20011;-62
2022/08/07 11:59:19;;;;;;;;;;;25.50;39.60;;;;;;5052685;28;19928;-62
2022/08/07 12:01:47;;;;;;;;;;;25.60;39.40;;;;;;5050220;28;19913;-61
2022/08/07 12:04:19;;;;;;;;;;;25.60;39.60;;;;;;5052814;28;20106;-62
2022/08/07 12:06:48;;;;;;;;;;;25.60;39.60;;;;;;5052945;28;20411;-62
2022/08/07 12:09:34;;;;;;;;;;;25.60;39.40;;;;;;5050871;28;19909;-62
2022/08/07 12:12:06;;;;;;;;;;;25.60;39.60;;;;;;5050937;28;20020;-62
2022/08/07 12:14:35;;;;;;;;;;;25.60;39.60;;;;;;5047823;28;20011;-62
2022/08/07 12:17:02;;;;;;;;;;;25.70;39.60;;;;;;5034632;28;19920;-62
2022/08/07 12:19:43;;;;;;;;;;;25.70;39.70;;;;;;5051204;28;19909;-62
2022/08/07 12:22:12;;;;;;;;;;;25.70;39.50;;;;;;5049577;28;19982;-62
2022/08/07 12:25:51;;;;;;;;;;;25.80;39.50;;;;;;5048553;28;19920;-62
2022/08/07 12:27:26;;;;;;;;;;;25.80;39.30;;;;;;5051328;28;19944;-62
2022/08/07 12:29:53;;;;;;;;;;;25.80;39.20;;;;;;5049911;28;19916;-62
2022/08/07 12:32:19;;;;;;;;;;;25.80;39.20;;;;;;5047364;28;19913;-62
2022/08/07 12:34:45;;;;;;;;;;;25.80;39.20;;;;;;5046347;28;19924;-62
2022/08/07 12:37:10;;;;;;;;;;;25.80;38.80;;;;;;5048687;28;19921;-62
2022/08/07 12:39:36;;;;;;;;;;;25.80;38.90;;;;;;5051203;28;19996;-62
2022/08/07 12:42:01;;;;;;;;;;;25.80;39.00;;;;;;5051618;28;19912;-62
2022/08/07 12:44:27;;;;;;;;;;;25.80;39.00;;;;;;5052364;28;20004;-62
2022/08/07 12:47:01;;;;;;;;;;;25.80;39.00;;;;;;5049940;28;19935;-62
2022/08/07 12:49:30;;;;;;;;;;;25.80;39.20;;;;;;5043027;28;20014;-62
2022/08/07 12:52:07;;;;;;;;;;;25.80;39.20;;;;;;5047252;28;20073;-62
2022/08/07 12:54:43;;;;;;;;;;;25.80;39.00;;;;;;5047298;28;19966;-63
2022/08/07 12:57:08;;;;;;;;;;;25.80;39.00;;;;;;5040823;28;19952;-61
2022/08/07 12:59:34;;;;;;;;;;;25.80;39.20;;;;;;5038845;28;20396;-61
2022/08/07 13:02:06;;;;;;;;;;;25.80;38.70;;;;;;5048907;28;20385;-62
2022/08/07 13:04:35;;;;;;;;;;;25.90;38.80;;;;;;5049872;28;19916;-61
2022/08/07 13:07:03;;;;;;;;;;;25.80;38.80;;;;;;5066747;28;20381;-62
2022/08/07 13:09:47;;;;;;;;;;;25.90;39.00;;;;;;5044085;28;19917;-62
2022/08/07 13:12:17;;;;;;;;;;;25.80;38.90;;;;;;5049523;28;20373;-62
2022/08/07 13:15:12;;;;;;;;;;;25.80;39.00;;;;;;5051968;28;19917;-62
2022/08/07 13:17:43;;;;;;;;;;;25.80;39.00;;;;;;5018517;28;19952;-62
2022/08/07 13:20:11;;;;;;;;;;;25.80;39.00;;;;;;5050643;28;20337;-62
2022/08/07 13:22:51;;;;;;;;;;;25.80;39.20;;;;;;5052272;28;20387;-62
2022/08/07 13:25:18;;;;;;;;;;;25.80;39.10;;;;;;5051170;28;19913;-62
2022/08/07 13:27:50;;;;;;;;;;;25.80;39.30;;;;;;5054956;28;19958;-62
2022/08/07 13:30:16;;;;;;;;;;;25.80;39.20;;;;;;5053751;28;20157;-61
2022/08/07 13:32:48;;;;;;;;;;;25.80;39.10;;;;;;5052059;28;19913;-61
2022/08/07 13:35:23;;;;;;;;;;;25.90;38.90;;;;;;5060424;28;19951;-62
2022/08/07 13:37:51;;;;;;;;;;;25.80;38.90;;;;;;5052143;28;19967;-62
2022/08/07 13:40:24;;;;;;;;;;;25.80;39.10;;;;;;5047793;28;19975;-62
2022/08/07 13:42:50;;;;;;;;;;;25.90;39.70;;;;;;5060259;28;19995;-62
2022/08/07 13:45:15;;;;;;;;;;;25.90;39.10;;;;;;5054013;28;19913;-60
2022/08/07 13:47:41;;;;;;;;;;;26.00;38.90;;;;;;5051195;28;19916;-61
2022/08/07 13:50:06;;;;;;;;;;;26.00;39.00;;;;;;5053958;28;19963;-61
2022/08/07 13:52:32;;;;;;;;;;;26.00;38.90;;;;;;5065666;28;19958;-62
2022/08/07 13:54:57;;;;;;;;;;;26.00;39.20;;;;;;5051493;28;20171;-62
2022/08/07 13:57:26;;;;;;;;;;;25.90;38.70;;;;;;5053535;28;19948;-62
2022/08/07 13:59:54;;;;;;;;;;;25.90;38.90;;;;;;5049012;28;19988;-61
2022/08/07 14:02:24;;;;;;;;;;;25.90;39.00;;;;;;5051186;28;20661;-61
2022/08/07 14:04:50;;;;;;;;;;;25.90;38.80;;;;;;5052442;28;19916;-62
2022/08/07 14:07:20;;;;;;;;;;;26.00;38.70;;;;;;5049947;28;20396;-61
2022/08/07 14:09:46;;;;;;;;;;;25.90;38.60;;;;;;5048326;28;19916;-62
2022/08/07 14:12:40;;;;;;;;;;;25.90;38.70;;;;;;5054374;28;19963;-62
2022/08/07 14:15:07;;;;;;;;;;;25.90;38.60;;;;;;5040129;28;19921;-61
2022/08/07 14:17:33;;;;;;;;;;;26.00;38.90;;;;;;5051980;28;20436;-60
2022/08/07 14:20:07;;;;;;;;;;;26.10;38.50;;;;;;5045724;28;20293;-61
2022/08/07 14:22:33;;;;;;;;;;;26.00;38.60;;;;;;5049864;28;19915;-61
2022/08/07 14:25:06;;;;;;;;;;;26.10;38.30;;;;;;5049549;28;19928;-61
2022/08/07 14:27:35;;;;;;;;;;;26.10;38.30;;;;;;5051498;28;19920;-61
2022/08/07 14:30:03;;;;;;;;;;;26.20;38.30;;;;;;5053364;28;20368;-61
2022/08/07 14:32:28;;;;;;;;;;;26.10;37.90;;;;;;5054532;28;19909;-61